createdAt,value
2019-05-11T00:05:45.291Z,92.15
2019-05-11T00:15:45.259Z,91.90
2019-05-11T00:25:45.249Z,93.25
2019-05-11T00:35:45.366Z,93.92
2019-05-11T00:45:45.411Z,94.88
2019-05-11T00:55:45.374Z,94.47
2019-05-11T01:05:45.401Z,94.03
2019-05-11T01:15:45.286Z,95.13
2019-05-11T01:25:45.247Z,95.68
2019-05-11T01:35:45.215Z,95.75
2019-05-11T01:45:45.283Z,96.90
2019-05-11T01:55:45.255Z,97.67
2019-05-11T02:05:45.340Z,97.57
2019-05-11T02:15:45.273Z,98.28
2019-05-11T02:25:45.348Z,98.15
2019-05-11T02:35:45.198Z,99.19
2019-05-11T02:45:45.276Z,99.15
2019-05-11T02:55:45.251Z,99.59
2019-05-11T03:05:46.160Z,99.59
2019-05-11T03:15:45.225Z,100.00
2019-05-11T03:25:45.313Z,100.00
2019-05-11T03:35:45.277Z,100.00
2019-05-11T03:45:45.247Z,100.00
2019-05-11T03:55:45.226Z,100.00
2019-05-11T04:05:45.272Z,100.00
2019-05-11T04:15:45.229Z,100.00
2019-05-11T04:25:45.194Z,100.00
2019-05-11T04:35:45.262Z,100.00
2019-05-11T04:45:45.257Z,100.00
2019-05-11T04:55:45.225Z,100.00
2019-05-11T05:05:45.280Z,100.00
2019-05-11T05:15:45.243Z,100.00
2019-05-11T05:25:45.223Z,100.00
2019-05-11T05:35:45.292Z,100.00
2019-05-11T05:45:45.326Z,100.00
2019-05-11T05:55:45.207Z,100.00
2019-05-11T06:05:45.291Z,100.00
2019-05-11T06:15:45.235Z,100.00
2019-05-11T06:25:46.041Z,100.00
2019-05-11T06:35:45.445Z,100.00
2019-05-11T06:45:45.220Z,100.00
2019-05-11T06:55:45.244Z,100.00
2019-05-11T07:05:45.268Z,100.00
2019-05-11T07:15:45.369Z,100.00
2019-05-11T07:25:45.194Z,100.00
2019-05-11T07:35:47.706Z,100.00
2019-05-11T07:45:48.017Z,100.00
2019-05-11T07:55:45.196Z,100.00
2019-05-11T08:05:47.697Z,100.00
2019-05-11T08:15:45.215Z,100.00
2019-05-11T08:25:45.283Z,99.44
2019-05-11T08:35:45.241Z,98.30
2019-05-11T08:45:45.222Z,97.30
2019-05-11T08:55:45.297Z,94.28
2019-05-11T09:05:45.348Z,93.58
2019-05-11T09:15:45.327Z,93.28
2019-05-11T09:25:47.579Z,91.50
2019-05-11T09:35:49.842Z,90.21
2019-05-11T09:45:48.655Z,87.62
2019-05-11T09:55:45.298Z,79.74
2019-05-11T10:05:45.247Z,78.33
2019-05-11T10:16:00.031Z,78.70
2019-05-11T10:25:45.275Z,74.15
2019-05-11T10:35:45.246Z,67.36
2019-05-11T10:45:45.199Z,71.09
2019-05-11T10:55:47.801Z,74.91
2019-05-11T11:05:45.956Z,68.52
2019-05-11T11:15:48.325Z,65.69
2019-05-11T11:25:45.298Z,58.38
2019-05-11T11:35:47.575Z,61.91
2019-05-11T11:45:45.214Z,77.46
2019-05-11T11:55:45.327Z,84.54
2019-05-11T12:05:47.547Z,84.85
2019-05-11T12:15:45.248Z,82.52
2019-05-11T12:25:45.302Z,74.30
2019-05-11T12:35:45.268Z,75.52
2019-05-11T12:45:45.220Z,66.10
2019-05-11T12:55:45.274Z,59.06
2019-05-11T13:05:45.369Z,66.62
2019-05-11T13:15:45.271Z,66.68
2019-05-11T13:25:45.318Z,67.45
2019-05-11T13:35:45.407Z,59.80
2019-05-11T13:45:45.303Z,58.63
2019-05-11T13:55:45.257Z,58.11
2019-05-11T14:05:45.345Z,51.11
2019-05-11T14:15:45.322Z,48.54
2019-05-11T14:25:45.410Z,46.57
2019-05-11T14:35:45.230Z,42.36
2019-05-11T14:45:45.343Z,44.29
2019-05-11T14:55:45.284Z,40.75
2019-05-11T15:05:45.248Z,42.32
2019-05-11T15:15:45.303Z,39.97
2019-05-11T15:25:45.284Z,43.32
2019-05-11T15:35:45.267Z,40.19
2019-05-11T15:45:45.317Z,38.69
2019-05-11T15:55:45.289Z,41.59
2019-05-11T16:05:45.282Z,43.40
2019-05-11T16:15:47.531Z,42.77
2019-05-11T16:25:45.291Z,44.29
2019-05-11T16:35:45.378Z,47.57
2019-05-11T16:45:45.494Z,50.90
2019-05-11T16:55:48.394Z,53.04
2019-05-11T17:05:45.484Z,53.78
2019-05-11T17:15:45.422Z,53.47
2019-05-11T17:25:45.400Z,52.51
2019-05-11T17:35:45.298Z,54.68
2019-05-11T17:45:47.746Z,55.51
2019-05-11T17:55:45.262Z,56.25
2019-05-11T18:05:48.374Z,55.35
2019-05-11T18:15:45.333Z,55.58
2019-05-11T18:25:45.346Z,53.78
2019-05-11T18:35:45.302Z,55.07
2019-05-11T18:45:45.269Z,55.75
2019-05-11T18:55:45.336Z,55.24
2019-05-11T19:05:47.859Z,57.18
2019-05-11T19:15:45.284Z,59.15
2019-05-11T19:25:45.342Z,60.06
2019-05-11T19:35:45.416Z,62.38
2019-05-11T19:45:45.288Z,62.90
2019-05-11T19:55:47.787Z,63.47
2019-05-11T20:05:45.301Z,64.79
2019-05-11T20:15:45.270Z,66.26
2019-05-11T20:25:47.650Z,67.27
2019-05-11T20:35:45.361Z,66.94
2019-05-11T20:45:45.542Z,68.89
2019-05-11T20:55:47.630Z,69.69
2019-05-11T21:05:45.463Z,69.50
2019-05-11T21:15:47.661Z,70.55
2019-05-11T21:25:45.992Z,71.23
2019-05-11T21:35:45.380Z,72.45
2019-05-11T21:45:45.446Z,72.99
2019-05-11T21:55:48.108Z,73.82
2019-05-11T22:05:45.370Z,75.58
2019-05-11T22:15:45.434Z,76.95
2019-05-11T22:25:47.580Z,78.79
2019-05-11T22:35:45.691Z,79.87
2019-05-11T22:45:45.318Z,80.88
2019-05-11T22:55:45.296Z,81.34
2019-05-11T23:05:47.603Z,82.19
2019-05-11T23:15:47.641Z,82.36
2019-05-11T23:25:45.317Z,82.48
2019-05-11T23:35:45.303Z,83.43
2019-05-11T23:45:45.259Z,84.04
2019-05-11T23:55:45.425Z,84.80
